sensor_id;sensor_type;location;lat;lon;timestamp;pressure;altitude;pressure_sealevel;temperature;humidity
41632;BME280;37452;51.938;4.624;2023-03-26T00:01:27;76676.59;;;-142.75;100.00
41632;BME280;37452;51.938;4.624;2023-03-26T00:03:53;76670.69;;;-142.75;100.00
41632;BME280;37452;51.938;4.624;2023-03-26T00:06:29;76678.56;;;-142.75;100.00
41632;BME280;37452;51.938;4.624;2023-03-26T00:08:55;76676.59;;;-142.75;100.00
41632;BME280;37452;51.938;4.624;2023-03-26T00:11:22;76684.47;;;-142.75;100.00
41632;BME280;37452;51.938;4.624;2023-03-26T00:13:47;76672.66;;;-142.75;100.00
41632;BME280;37452;51.938;4.624;2023-03-26T00:16:14;76668.72;;;-142.75;100.00
41632;BME280;37452;51.938;4.624;2023-03-26T00:18:39;76660.84;;;-142.75;100.00
41632;BME280;37452;51.938;4.624;2023-03-26T00:21:06;76649.03;;;-142.75;100.00
41632;BME280;37452;51.938;4.624;2023-03-26T00:23:32;76652.97;;;-142.75;100.00
41632;BME280;37452;51.938;4.624;2023-03-26T00:25:59;76654.94;;;-142.75;100.00
41632;BME280;37452;51.938;4.624;2023-03-26T00:28:25;76649.03;;;-142.75;100.00
41632;BME280;37452;51.938;4.624;2023-03-26T00:31:00;76649.03;;;-142.75;100.00
41632;BME280;37452;51.938;4.624;2023-03-26T00:33:26;76643.13;;;-142.75;100.00
41632;BME280;37452;51.938;4.624;2023-03-26T00:35:55;76635.25;;;-142.75;100.00
41632;BME280;37452;51.938;4.624;2023-03-26T00:38:23;76647.06;;;-142.75;100.00
41632;BME280;37452;51.938;4.624;2023-03-26T00:40:49;76623.44;;;-142.75;100.00
41632;BME280;37452;51.938;4.624;2023-03-26T00:43:15;76619.50;;;-142.75;100.00
41632;BME280;37452;51.938;4.624;2023-03-26T00:45:50;76623.44;;;-142.75;100.00
41632;BME280;37452;51.938;4.624;2023-03-26T00:48:15;76619.50;;;-142.75;100.00
41632;BME280;37452;51.938;4.624;2023-03-26T00:50:41;76615.56;;;-142.75;100.00
41632;BME280;37452;51.938;4.624;2023-03-26T00:53:08;76613.59;;;-142.75;100.00
41632;BME280;37452;51.938;4.624;2023-03-26T00:55:36;76621.47;;;-142.75;100.00
41632;BME280;37452;51.938;4.624;2023-03-26T00:58:01;76629.34;;;-142.75;100.00
41632;BME280;37452;51.938;4.624;2023-03-26T01:00:27;76621.47;;;-142.75;100.00
41632;BME280;37452;51.938;4.624;2023-03-26T01:02:53;76641.16;;;-142.75;100.00
41632;BME280;37452;51.938;4.624;2023-03-26T01:07:58;76629.34;;;-142.75;100.00
41632;BME280;37452;51.938;4.624;2023-03-26T01:10:23;76637.22;;;-142.75;100.00
41632;BME280;37452;51.938;4.624;2023-03-26T01:12:49;76631.31;;;-142.75;100.00
41632;BME280;37452;51.938;4.624;2023-03-26T01:15:15;76643.13;;;-142.75;100.00
41632;BME280;37452;51.938;4.624;2023-03-26T01:17:40;76637.22;;;-142.75;100.00
41632;BME280;37452;51.938;4.624;2023-03-26T01:20:15;76641.16;;;-142.75;100.00
41632;BME280;37452;51.938;4.624;2023-03-26T01:22:47;76637.22;;;-142.75;100.00
41632;BME280;37452;51.938;4.624;2023-03-26T01:25:15;76652.97;;;-142.75;100.00
41632;BME280;37452;51.938;4.624;2023-03-26T01:27:41;76647.06;;;-142.75;100.00
41632;BME280;37452;51.938;4.624;2023-03-26T01:30:32;76643.13;;;-142.75;100.00
41632;BME280;37452;51.938;4.624;2023-03-26T01:33:02;76637.22;;;-142.75;100.00
41632;BME280;37452;51.938;4.624;2023-03-26T01:38:05;76615.56;;;-142.75;100.00
41632;BME280;37452;51.938;4.624;2023-03-26T01:40:41;76617.53;;;-142.75;100.00
41632;BME280;37452;51.938;4.624;2023-03-26T01:43:23;76609.66;;;-142.75;100.00
41632;BME280;37452;51.938;4.624;2023-03-26T01:45:51;76625.41;;;-142.75;100.00
41632;BME280;37452;51.938;4.624;2023-03-26T01:48:17;76613.59;;;-142.75;100.00
41632;BME280;37452;51.938;4.624;2023-03-26T01:50:42;76597.84;;;-142.75;100.00
41632;BME280;37452;51.938;4.624;2023-03-26T01:53:08;76605.72;;;-142.75;100.00
41632;BME280;37452;51.938;4.624;2023-03-26T01:58:09;76609.66;;;-142.75;100.00
41632;BME280;37452;51.938;4.624;2023-03-26T02:08:30;76611.63;;;-142.75;100.00
41632;BME280;37452;51.938;4.624;2023-03-26T02:10:59;76609.66;;;-142.75;100.00
41632;BME280;37452;51.938;4.624;2023-03-26T02:13:26;76617.53;;;-142.75;100.00
41632;BME280;37452;51.938;4.624;2023-03-26T02:15:58;76615.56;;;-142.75;100.00
41632;BME280;37452;51.938;4.624;2023-03-26T02:18:24;76603.75;;;-142.75;100.00
41632;BME280;37452;51.938;4.624;2023-03-26T02:20:50;76599.81;;;-142.75;100.00
41632;BME280;37452;51.938;4.624;2023-03-26T02:23:17;76593.91;;;-142.75;100.00
41632;BME280;37452;51.938;4.624;2023-03-26T02:25:42;76591.94;;;-142.75;100.00
41632;BME280;37452;51.938;4.624;2023-03-26T02:28:08;76593.91;;;-142.75;100.00
41632;BME280;37452;51.938;4.624;2023-03-26T02:30:33;76586.03;;;-142.75;100.00
41632;BME280;37452;51.938;4.624;2023-03-26T02:32:58;76591.94;;;-142.75;100.00
41632;BME280;37452;51.938;4.624;2023-03-26T02:35:24;76578.16;;;-142.75;100.00
41632;BME280;37452;51.938;4.624;2023-03-26T02:37:49;76588.00;;;-142.75;100.00
41632;BME280;37452;51.938;4.624;2023-03-26T02:40:15;76586.03;;;-142.75;100.00
41632;BME280;37452;51.938;4.624;2023-03-26T02:42:41;76570.28;;;-142.75;100.00
41632;BME280;37452;51.938;4.624;2023-03-26T02:45:06;76570.28;;;-142.75;100.00
41632;BME280;37452;51.938;4.624;2023-03-26T02:47:32;76566.34;;;-142.75;100.00
41632;BME280;37452;51.938;4.624;2023-03-26T02:49:57;76574.22;;;-142.75;100.00
41632;BME280;37452;51.938;4.624;2023-03-26T02:52:23;76572.25;;;-142.75;100.00
41632;BME280;37452;51.938;4.624;2023-03-26T02:54:48;76568.31;;;-142.75;100.00
41632;BME280;37452;51.938;4.624;2023-03-26T02:57:13;76574.22;;;-142.75;100.00
41632;BME280;37452;51.938;4.624;2023-03-26T02:59:38;76578.16;;;-142.75;100.00
41632;BME280;37452;51.938;4.624;2023-03-26T03:02:03;76580.13;;;-142.75;100.00
41632;BME280;37452;51.938;4.624;2023-03-26T03:04:29;76593.91;;;-142.75;100.00
41632;BME280;37452;51.938;4.624;2023-03-26T03:06:54;76609.66;;;-142.75;100.00
41632;BME280;37452;51.938;4.624;2023-03-26T03:09:21;76613.59;;;-142.75;100.00
41632;BME280;37452;51.938;4.624;2023-03-26T03:11:47;76609.66;;;-142.75;100.00
41632;BME280;37452;51.938;4.624;2023-03-26T03:14:12;76605.72;;;-142.75;100.00
41632;BME280;37452;51.938;4.624;2023-03-26T03:16:37;76593.91;;;-142.75;100.00
41632;BME280;37452;51.938;4.624;2023-03-26T03:19:02;76584.06;;;-142.75;100.00
41632;BME280;37452;51.938;4.624;2023-03-26T03:21:30;76572.25;;;-142.75;100.00
41632;BME280;37452;51.938;4.624;2023-03-26T03:23:55;76605.72;;;-142.75;100.00
41632;BME280;37452;51.938;4.624;2023-03-26T03:26:21;76593.91;;;-142.75;100.00
41632;BME280;37452;51.938;4.624;2023-03-26T03:28:47;76578.16;;;-142.75;100.00
41632;BME280;37452;51.938;4.624;2023-03-26T03:31:13;76564.38;;;-142.75;100.00
41632;BME280;37452;51.938;4.624;2023-03-26T03:33:38;76566.34;;;-142.75;100.00
41632;BME280;37452;51.938;4.624;2023-03-26T03:36:06;76562.41;;;-142.75;100.00
41632;BME280;37452;51.938;4.624;2023-03-26T03:38:35;76558.47;;;-142.75;100.00
41632;BME280;37452;51.938;4.624;2023-03-26T03:41:00;76550.59;;;-142.75;100.00
41632;BME280;37452;51.938;4.624;2023-03-26T03:43:25;76552.56;;;-142.75;100.00
41632;BME280;37452;51.938;4.624;2023-03-26T03:45:51;76554.53;;;-142.75;100.00
41632;BME280;37452;51.938;4.624;2023-03-26T03:48:16;76554.53;;;-142.75;100.00
41632;BME280;37452;51.938;4.624;2023-03-26T03:50:42;76546.66;;;-142.75;100.00
41632;BME280;37452;51.938;4.624;2023-03-26T03:53:08;76554.53;;;-142.75;100.00
41632;BME280;37452;51.938;4.624;2023-03-26T03:55:33;76560.44;;;-142.75;100.00
41632;BME280;37452;51.938;4.624;2023-03-26T03:58:02;76560.44;;;-142.75;100.00
41632;BME280;37452;51.938;4.624;2023-03-26T04:00:27;76542.72;;;-142.75;100.00
41632;BME280;37452;51.938;4.624;2023-03-26T04:02:54;76548.63;;;-142.75;100.00
41632;BME280;37452;51.938;4.624;2023-03-26T04:05:20;76540.75;;;-142.75;100.00
41632;BME280;37452;51.938;4.624;2023-03-26T04:07:45;76538.78;;;-142.75;100.00
41632;BME280;37452;51.938;4.624;2023-03-26T04:10:11;76552.56;;;-142.75;100.00
41632;BME280;37452;51.938;4.624;2023-03-26T04:12:38;76548.63;;;-142.75;100.00
41632;BME280;37452;51.938;4.624;2023-03-26T04:15:03;76544.69;;;-142.75;100.00
41632;BME280;37452;51.938;4.624;2023-03-26T04:17:29;76552.56;;;-142.75;100.00
41632;BME280;37452;51.938;4.624;2023-03-26T04:19:54;76532.88;;;-142.75;100.00
41632;BME280;37452;51.938;4.624;2023-03-26T04:22:20;76538.78;;;-142.75;100.00
41632;BME280;37452;51.938;4.624;2023-03-26T04:24:45;76544.69;;;-142.75;100.00
41632;BME280;37452;51.938;4.624;2023-03-26T04:27:15;76544.69;;;-142.75;100.00
41632;BME280;37452;51.938;4.624;2023-03-26T04:29:42;76548.63;;;-142.75;100.00
41632;BME280;37452;51.938;4.624;2023-03-26T04:32:12;76534.84;;;-142.75;100.00
41632;BME280;37452;51.938;4.624;2023-03-26T04:34:40;76538.78;;;-142.75;100.00
41632;BME280;37452;51.938;4.624;2023-03-26T04:37:11;76521.09;;;-142.75;100.00
41632;BME280;37452;51.938;4.624;2023-03-26T04:39:40;76530.91;;;-142.75;100.00
41632;BME280;37452;51.938;4.624;2023-03-26T04:42:06;76532.88;;;-142.75;100.00
41632;BME280;37452;51.938;4.624;2023-03-26T04:44:33;76523.06;;;-142.75;100.00
41632;BME280;37452;51.938;4.624;2023-03-26T04:46:59;76491.56;;;-142.75;100.00
41632;BME280;37452;51.938;4.624;2023-03-26T04:49:24;76487.63;;;-142.75;100.00
41632;BME280;37452;51.938;4.624;2023-03-26T04:51:49;76499.44;;;-142.75;100.00
41632;BME280;37452;51.938;4.624;2023-03-26T04:54:15;76495.50;;;-142.75;100.00
41632;BME280;37452;51.938;4.624;2023-03-26T04:56:55;76525.03;;;-142.75;100.00
41632;BME280;37452;51.938;4.624;2023-03-26T04:59:23;76511.25;;;-142.75;100.00
41632;BME280;37452;51.938;4.624;2023-03-26T05:01:51;76505.34;;;-142.75;100.00
41632;BME280;37452;51.938;4.624;2023-03-26T05:04:16;76499.44;;;-142.75;100.00
41632;BME280;37452;51.938;4.624;2023-03-26T05:06:41;76503.38;;;-142.75;100.00
41632;BME280;37452;51.938;4.624;2023-03-26T05:09:07;76515.19;;;-142.75;100.00
41632;BME280;37452;51.938;4.624;2023-03-26T05:11:34;76521.09;;;-142.75;100.00
41632;BME280;37452;51.938;4.624;2023-03-26T05:13:59;76507.31;;;-142.75;100.00
41632;BME280;37452;51.938;4.624;2023-03-26T05:16:25;76487.63;;;-142.75;100.00
41632;BME280;37452;51.938;4.624;2023-03-26T05:18:50;76509.28;;;-142.75;100.00
41632;BME280;37452;51.938;4.624;2023-03-26T05:21:15;76517.16;;;-142.75;100.00
41632;BME280;37452;51.938;4.624;2023-03-26T05:23:41;76515.19;;;-142.75;100.00
41632;BME280;37452;51.938;4.624;2023-03-26T05:26:07;76515.19;;;-142.75;100.00
41632;BME280;37452;51.938;4.624;2023-03-26T05:28:32;76519.13;;;-142.75;100.00
41632;BME280;37452;51.938;4.624;2023-03-26T05:30:58;76523.06;;;-142.75;100.00
41632;BME280;37452;51.938;4.624;2023-03-26T05:33:24;76542.72;;;-142.75;100.00
41632;BME280;37452;51.938;4.624;2023-03-26T05:38:25;76542.72;;;-142.75;100.00
41632;BME280;37452;51.938;4.624;2023-03-26T05:40:56;76523.06;;;-142.75;100.00
41632;BME280;37452;51.938;4.624;2023-03-26T05:43:21;76532.88;;;-142.75;100.00
41632;BME280;37452;51.938;4.624;2023-03-26T05:45:46;76527.00;;;-142.75;100.00
41632;BME280;37452;51.938;4.624;2023-03-26T05:48:11;76523.06;;;-142.75;100.00
41632;BME280;37452;51.938;4.624;2023-03-26T05:50:37;76509.28;;;-142.75;100.00
41632;BME280;37452;51.938;4.624;2023-03-26T05:53:02;76505.34;;;-142.75;100.00
41632;BME280;37452;51.938;4.624;2023-03-26T05:55:27;76507.31;;;-142.75;100.00
41632;BME280;37452;51.938;4.624;2023-03-26T05:57:52;76509.28;;;-142.75;100.00
41632;BME280;37452;51.938;4.624;2023-03-26T06:00:18;76491.56;;;-142.75;100.00
41632;BME280;37452;51.938;4.624;2023-03-26T06:02:43;76501.41;;;-142.75;100.00
41632;BME280;37452;51.938;4.624;2023-03-26T06:05:08;76499.44;;;-142.75;100.00
41632;BME280;37452;51.938;4.624;2023-03-26T06:07:33;76499.44;;;-142.75;100.00
41632;BME280;37452;51.938;4.624;2023-03-26T06:09:59;76493.53;;;-142.75;100.00
41632;BME280;37452;51.938;4.624;2023-03-26T06:12:24;76495.50;;;-142.75;100.00
41632;BME280;37452;51.938;4.624;2023-03-26T06:14:50;76503.38;;;-142.75;100.00
41632;BME280;37452;51.938;4.624;2023-03-26T06:17:15;76503.38;;;-142.75;100.00
41632;BME280;37452;51.938;4.624;2023-03-26T06:19:40;76491.56;;;-142.75;100.00
41632;BME280;37452;51.938;4.624;2023-03-26T06:22:05;76497.47;;;-142.75;100.00
41632;BME280;37452;51.938;4.624;2023-03-26T06:24:31;76491.56;;;-142.75;100.00
41632;BME280;37452;51.938;4.624;2023-03-26T06:26:56;76481.72;;;-142.75;100.00
41632;BME280;37452;51.938;4.624;2023-03-26T06:29:22;76479.75;;;-142.75;100.00
41632;BME280;37452;51.938;4.624;2023-03-26T06:31:47;76464.00;;;-142.75;100.00
41632;BME280;37452;51.938;4.624;2023-03-26T06:34:12;76456.13;;;-142.75;100.00
41632;BME280;37452;51.938;4.624;2023-03-26T06:36:37;76456.13;;;-142.75;100.00
41632;BME280;37452;51.938;4.624;2023-03-26T06:39:03;76444.31;;;-142.75;100.00
41632;BME280;37452;51.938;4.624;2023-03-26T06:41:28;76438.41;;;-142.75;100.00
41632;BME280;37452;51.938;4.624;2023-03-26T06:43:53;76420.69;;;-142.75;100.00
41632;BME280;37452;51.938;4.624;2023-03-26T06:46:19;76414.78;;;-142.75;100.00
41632;BME280;37452;51.938;4.624;2023-03-26T06:48:45;76410.84;;;-142.75;100.00
41632;BME280;37452;51.938;4.624;2023-03-26T06:51:10;76401.00;;;-142.75;100.00
41632;BME280;37452;51.938;4.624;2023-03-26T06:53:35;76393.13;;;-142.75;100.00
41632;BME280;37452;51.938;4.624;2023-03-26T06:56:01;76393.13;;;-142.75;100.00
41632;BME280;37452;51.938;4.624;2023-03-26T06:58:27;76387.22;;;-142.75;100.00
41632;BME280;37452;51.938;4.624;2023-03-26T07:00:53;76389.19;;;-142.75;100.00
41632;BME280;37452;51.938;4.624;2023-03-26T07:03:18;76389.19;;;-142.75;100.00
41632;BME280;37452;51.938;4.624;2023-03-26T07:05:43;76379.34;;;-142.75;100.00
41632;BME280;37452;51.938;4.624;2023-03-26T07:08:08;76367.53;;;-142.75;100.00
41632;BME280;37452;51.938;4.624;2023-03-26T07:10:34;76357.69;;;-142.75;100.00
41632;BME280;37452;51.938;4.624;2023-03-26T07:12:59;76361.63;;;-142.75;100.00
41632;BME280;37452;51.938;4.624;2023-03-26T07:15:25;76377.38;;;-142.75;100.00
41632;BME280;37452;51.938;4.624;2023-03-26T07:17:51;76383.28;;;-142.75;100.00
41632;BME280;37452;51.938;4.624;2023-03-26T07:20:16;76397.06;;;-142.75;100.00
41632;BME280;37452;51.938;4.624;2023-03-26T07:22:41;76424.63;;;-142.75;100.00
41632;BME280;37452;51.938;4.624;2023-03-26T07:25:07;76412.81;;;-142.75;100.00
41632;BME280;37452;51.938;4.624;2023-03-26T07:27:37;76416.75;;;-142.75;100.00
41632;BME280;37452;51.938;4.624;2023-03-26T07:32:48;76397.06;;;-142.75;100.00
41632;BME280;37452;51.938;4.624;2023-03-26T07:35:25;76361.63;;;-142.75;100.00
41632;BME280;37452;51.938;4.624;2023-03-26T07:40:33;76355.72;;;-142.75;100.00
41632;BME280;37452;51.938;4.624;2023-03-26T07:43:02;76355.72;;;-142.75;100.00
41632;BME280;37452;51.938;4.624;2023-03-26T07:45:36;76369.50;;;-142.75;100.00
41632;BME280;37452;51.938;4.624;2023-03-26T07:48:07;76361.63;;;-142.75;100.00
41632;BME280;37452;51.938;4.624;2023-03-26T07:50:37;76389.19;;;-142.75;100.00
41632;BME280;37452;51.938;4.624;2023-03-26T07:53:02;76373.44;;;-142.75;100.00
41632;BME280;37452;51.938;4.624;2023-03-26T07:55:27;76402.97;;;-142.75;100.00
41632;BME280;37452;51.938;4.624;2023-03-26T08:00:39;76406.91;;;-142.75;100.00
41632;BME280;37452;51.938;4.624;2023-03-26T08:05:48;76408.88;;;-142.75;100.00
41632;BME280;37452;51.938;4.624;2023-03-26T08:08:32;76424.63;;;-142.75;100.00
41632;BME280;37452;51.938;4.624;2023-03-26T08:11:09;76414.78;;;-142.75;100.00
41632;BME280;37452;51.938;4.624;2023-03-26T08:21:16;76381.31;;;-142.75;100.00
41632;BME280;37452;51.938;4.624;2023-03-26T08:23:57;76369.50;;;-142.75;100.00
41632;BME280;37452;51.938;4.624;2023-03-26T08:26:27;76361.63;;;-142.75;100.00
41632;BME280;37452;51.938;4.624;2023-03-26T08:31:23;76349.81;;;-142.75;100.00
41632;BME280;37452;51.938;4.624;2023-03-26T08:33:51;76355.72;;;-142.75;100.00
41632;BME280;37452;51.938;4.624;2023-03-26T08:36:16;76330.16;;;-142.75;100.00
41632;BME280;37452;51.938;4.624;2023-03-26T08:38:41;76306.53;;;-142.75;100.00
41632;BME280;37452;51.938;4.624;2023-03-26T09:45:56;76300.63;;;-142.75;100.00
41632;BME280;37452;51.938;4.624;2023-03-26T09:51:57;76294.72;;;-142.75;100.00
41632;BME280;37452;51.938;4.624;2023-03-26T10:17:36;76298.66;;;-142.75;100.00
41632;BME280;37452;51.938;4.624;2023-03-26T10:20:11;76304.56;;;-142.75;100.00
41632;BME280;37452;51.938;4.624;2023-03-26T10:28:19;76363.59;;;-142.75;100.00
41632;BME280;37452;51.938;4.624;2023-03-26T10:30:55;76393.13;;;-142.75;100.00
41632;BME280;37452;51.938;4.624;2023-03-26T10:41:04;76397.06;;;-142.75;100.00
41632;BME280;37452;51.938;4.624;2023-03-26T10:53:53;76418.72;;;-142.75;100.00
41632;BME280;37452;51.938;4.624;2023-03-26T10:58:59;76408.88;;;-142.75;100.00
41632;BME280;37452;51.938;4.624;2023-03-26T11:04:27;76401.00;;;-142.75;100.00
41632;BME280;37452;51.938;4.624;2023-03-26T11:09:39;76414.78;;;-142.75;100.00
41632;BME280;37452;51.938;4.624;2023-03-26T11:20:01;76452.19;;;-142.75;100.00
41632;BME280;37452;51.938;4.624;2023-03-26T11:25:00;76418.72;;;-142.75;100.00
41632;BME280;37452;51.938;4.624;2023-03-26T11:27:38;76418.72;;;-142.75;100.00
41632;BME280;37452;51.938;4.624;2023-03-26T11:33:02;76444.31;;;-142.75;100.00
41632;BME280;37452;51.938;4.624;2023-03-26T11:35:30;76467.94;;;-142.75;100.00
41632;BME280;37452;51.938;4.624;2023-03-26T11:38:02;76469.91;;;-142.75;100.00
41632;BME280;37452;51.938;4.624;2023-03-26T11:40:28;76497.47;;;-142.75;100.00
41632;BME280;37452;51.938;4.624;2023-03-26T11:43:00;76483.69;;;-142.75;100.00
41632;BME280;37452;51.938;4.624;2023-03-26T11:45:26;76471.88;;;-142.75;100.00
41632;BME280;37452;51.938;4.624;2023-03-26T11:48:03;76495.50;;;-142.75;100.00
41632;BME280;37452;51.938;4.624;2023-03-26T11:50:33;76448.25;;;-142.75;100.00
41632;BME280;37452;51.938;4.624;2023-03-26T11:53:13;76440.38;;;-142.75;100.00
41632;BME280;37452;51.938;4.624;2023-03-26T11:55:58;76432.50;;;-142.75;100.00
41632;BME280;37452;51.938;4.624;2023-03-26T12:00:55;76467.94;;;-142.75;100.00
41632;BME280;37452;51.938;4.624;2023-03-26T12:03:20;76483.69;;;-142.75;100.00
41632;BME280;37452;51.938;4.624;2023-03-26T12:05:47;76487.63;;;-142.75;100.00
41632;BME280;37452;51.938;4.624;2023-03-26T12:08:27;76495.50;;;-142.75;100.00
41632;BME280;37452;51.938;4.624;2023-03-26T12:10:58;76521.09;;;-142.75;100.00
41632;BME280;37452;51.938;4.624;2023-03-26T12:13:32;76550.59;;;-142.75;100.00
41632;BME280;37452;51.938;4.624;2023-03-26T12:16:00;76536.84;;;-142.75;100.00
41632;BME280;37452;51.938;4.624;2023-03-26T12:18:28;76536.84;;;-142.75;100.00
41632;BME280;37452;51.938;4.624;2023-03-26T12:23:35;76532.88;;;-142.75;100.00
41632;BME280;37452;51.938;4.624;2023-03-26T12:26:10;76521.09;;;-142.75;100.00
41632;BME280;37452;51.938;4.624;2023-03-26T12:28:38;76538.78;;;-142.75;100.00
41632;BME280;37452;51.938;4.624;2023-03-26T12:31:09;76527.00;;;-142.75;100.00
41632;BME280;37452;51.938;4.624;2023-03-26T12:33:35;76519.13;;;-142.75;100.00
41632;BME280;37452;51.938;4.624;2023-03-26T12:38:49;76536.84;;;-142.75;100.00
41632;BME280;37452;51.938;4.624;2023-03-26T12:41:15;76511.25;;;-142.75;100.00
41632;BME280;37452;51.938;4.624;2023-03-26T12:48:44;76530.91;;;-142.75;100.00
41632;BME280;37452;51.938;4.624;2023-03-26T12:56:21;76544.69;;;-142.75;100.00
41632;BME280;37452;51.938;4.624;2023-03-26T13:06:51;76546.66;;;-142.75;100.00
41632;BME280;37452;51.938;4.624;2023-03-26T13:19:38;76603.75;;;-142.75;100.00
41632;BME280;37452;51.938;4.624;2023-03-26T13:22:16;76633.28;;;-142.75;100.00
41632;BME280;37452;51.938;4.624;2023-03-26T13:27:20;76625.41;;;-142.75;100.00
41632;BME280;37452;51.938;4.624;2023-03-26T13:40:19;76672.66;;;-142.75;100.00
41632;BME280;37452;51.938;4.624;2023-03-26T13:47:53;76731.72;;;-142.75;100.00
41632;BME280;37452;51.938;4.624;2023-03-26T13:50:30;76715.97;;;-142.75;100.00
41632;BME280;37452;51.938;4.624;2023-03-26T13:53:09;76739.59;;;-142.75;100.00
41632;BME280;37452;51.938;4.624;2023-03-26T13:55:37;76745.50;;;-142.75;100.00
41632;BME280;37452;51.938;4.624;2023-03-26T14:00:44;76727.78;;;-142.75;100.00
41632;BME280;37452;51.938;4.624;2023-03-26T14:05:50;76704.16;;;-142.75;100.00
41632;BME280;37452;51.938;4.624;2023-03-26T14:08:27;76715.97;;;-142.75;100.00
41632;BME280;37452;51.938;4.624;2023-03-26T14:10:55;76710.06;;;-142.75;100.00
41632;BME280;37452;51.938;4.624;2023-03-26T14:13:26;76753.38;;;-142.75;100.00
41632;BME280;37452;51.938;4.624;2023-03-26T14:15:59;76755.34;;;-142.75;100.00
41632;BME280;37452;51.938;4.624;2023-03-26T14:18:32;76749.44;;;-142.75;100.00
41632;BME280;37452;51.938;4.624;2023-03-26T14:31:43;76725.81;;;-142.75;100.00
41632;BME280;37452;51.938;4.624;2023-03-26T14:41:50;76735.66;;;-142.75;100.00
41632;BME280;37452;51.938;4.624;2023-03-26T14:44:25;76725.81;;;-142.75;100.00
41632;BME280;37452;51.938;4.624;2023-03-26T14:49:20;76731.72;;;-142.75;100.00
41632;BME280;37452;51.938;4.624;2023-03-26T14:54:18;76751.41;;;-142.75;100.00
41632;BME280;37452;51.938;4.624;2023-03-26T14:56:57;76763.22;;;-142.75;100.00
41632;BME280;37452;51.938;4.624;2023-03-26T15:12:36;76849.81;;;-142.75;100.00
41632;BME280;37452;51.938;4.624;2023-03-26T15:15:25;76830.13;;;-142.75;100.00
41632;BME280;37452;51.938;4.624;2023-03-26T15:27:49;76865.56;;;-142.75;100.00
41632;BME280;37452;51.938;4.624;2023-03-26T15:30:25;76895.09;;;-142.75;100.00
41632;BME280;37452;51.938;4.624;2023-03-26T15:49:48;76973.84;;;-142.75;100.00
41632;BME280;37452;51.938;4.624;2023-03-26T15:52:19;77011.25;;;-142.75;100.00
41632;BME280;37452;51.938;4.624;2023-03-26T15:58:35;77032.91;;;-142.75;100.00
41632;BME280;37452;51.938;4.624;2023-03-26T16:00:27;77015.19;;;-142.75;100.00
41632;BME280;37452;51.938;4.624;2023-03-26T16:05:28;77030.94;;;-142.75;100.00
41632;BME280;37452;51.938;4.624;2023-03-26T16:18:41;77072.28;;;-142.75;100.00
41632;BME280;37452;51.938;4.624;2023-03-26T16:21:24;77078.19;;;-142.75;100.00
41632;BME280;37452;51.938;4.624;2023-03-26T16:29:28;77066.38;;;-142.75;100.00
41632;BME280;37452;51.938;4.624;2023-03-26T16:37:25;77111.66;;;-142.75;100.00
41632;BME280;37452;51.938;4.624;2023-03-26T16:39:53;77105.75;;;-142.75;100.00
41632;BME280;37452;51.938;4.624;2023-03-26T16:42:40;77125.44;;;-142.75;100.00
41632;BME280;37452;51.938;4.624;2023-03-26T16:45:16;77133.31;;;-142.75;100.00
41632;BME280;37452;51.938;4.624;2023-03-26T16:48:05;77153.00;;;-142.75;100.00
41632;BME280;37452;51.938;4.624;2023-03-26T17:03:31;77225.84;;;-142.75;100.00
41632;BME280;37452;51.938;4.624;2023-03-26T17:06:03;77227.81;;;-142.75;100.00
41632;BME280;37452;51.938;4.624;2023-03-26T17:10:56;77269.16;;;-142.75;100.00
41632;BME280;37452;51.938;4.624;2023-03-26T17:14:12;77271.13;;;-142.75;100.00
41632;BME280;37452;51.938;4.624;2023-03-26T17:16:13;77284.91;;;-142.75;100.00
41632;BME280;37452;51.938;4.624;2023-03-26T17:18:45;77296.72;;;-142.75;100.00
41632;BME280;37452;51.938;4.624;2023-03-26T17:21:18;77306.56;;;-142.75;100.00
41632;BME280;37452;51.938;4.624;2023-03-26T17:23:56;77306.56;;;-142.75;100.00
41632;BME280;37452;51.938;4.624;2023-03-26T17:26:39;77320.34;;;-142.75;100.00
41632;BME280;37452;51.938;4.624;2023-03-26T17:31:41;77342.00;;;-142.75;100.00
41632;BME280;37452;51.938;4.624;2023-03-26T17:36:55;77375.47;;;-142.75;100.00
41632;BME280;37452;51.938;4.624;2023-03-26T17:39:46;77373.50;;;-142.75;100.00
41632;BME280;37452;51.938;4.624;2023-03-26T17:42:26;77397.13;;;-142.75;100.00
41632;BME280;37452;51.938;4.624;2023-03-26T17:44:55;77405.00;;;-142.75;100.00
41632;BME280;37452;51.938;4.624;2023-03-26T17:47:44;77428.63;;;-142.75;100.00
41632;BME280;37452;51.938;4.624;2023-03-26T17:50:11;77424.69;;;-142.75;100.00
41632;BME280;37452;51.938;4.624;2023-03-26T17:52:44;77446.34;;;-142.75;100.00
41632;BME280;37452;51.938;4.624;2023-03-26T17:55:14;77436.50;;;-142.75;100.00
41632;BME280;37452;51.938;4.624;2023-03-26T17:57:42;77432.56;;;-142.75;100.00
41632;BME280;37452;51.938;4.624;2023-03-26T18:00:15;77454.25;;;-142.75;100.00
41632;BME280;37452;51.938;4.624;2023-03-26T18:02:44;77456.22;;;-142.75;100.00
41632;BME280;37452;51.938;4.624;2023-03-26T18:05:12;77470.00;;;-142.75;100.00
41632;BME280;37452;51.938;4.624;2023-03-26T18:13:41;77483.78;;;-142.75;100.00
41632;BME280;37452;51.938;4.624;2023-03-26T18:20:58;77487.72;;;-142.75;100.00
41632;BME280;37452;51.938;4.624;2023-03-26T18:23:34;77525.13;;;-142.75;100.00
41632;BME280;37452;51.938;4.624;2023-03-26T18:26:14;77529.06;;;-142.75;100.00
41632;BME280;37452;51.938;4.624;2023-03-26T18:28:43;77546.78;;;-142.75;100.00
41632;BME280;37452;51.938;4.624;2023-03-26T18:31:15;77544.81;;;-142.75;100.00
41632;BME280;37452;51.938;4.624;2023-03-26T18:33:44;77529.06;;;-142.75;100.00
41632;BME280;37452;51.938;4.624;2023-03-26T18:36:10;77517.25;;;-142.75;100.00